createdAt,value
2018-11-05T00:01:35.745Z,101254.00
2018-11-05T00:03:38.703Z,101244.00
2018-11-05T00:05:41.756Z,101239.00
2018-11-05T00:07:44.744Z,101236.00
2018-11-05T00:09:47.712Z,101249.00
2018-11-05T00:11:51.051Z,101241.00
2018-11-05T00:13:54.037Z,101234.00
2018-11-05T00:15:57.004Z,101234.00
2018-11-05T00:18:00.143Z,101237.00
2018-11-05T00:20:04.864Z,101223.00
2018-11-05T00:22:08.059Z,101217.00
2018-11-05T00:24:11.556Z,101222.00
2018-11-05T00:26:14.561Z,101225.00
2018-11-05T00:28:17.557Z,101224.00
2018-11-05T00:30:20.950Z,101221.00
2018-11-05T00:32:23.968Z,101229.00
2018-11-05T00:34:27.026Z,101222.00
2018-11-05T00:36:30.068Z,101222.00
2018-11-05T00:38:34.294Z,101220.00
2018-11-05T00:40:37.288Z,101218.00
2018-11-05T00:42:40.975Z,101235.00
2018-11-05T00:44:43.963Z,101234.00
2018-11-05T00:46:46.952Z,101231.00
2018-11-05T00:48:49.985Z,101222.00
2018-11-05T00:50:53.012Z,101224.00
2018-11-05T00:52:56.018Z,101224.00
2018-11-05T00:54:59.269Z,101221.00
2018-11-05T00:57:03.698Z,101206.00
2018-11-05T00:59:06.742Z,101211.00
2018-11-05T01:01:10.048Z,101199.00
2018-11-05T01:03:13.038Z,101197.00
2018-11-05T01:05:16.644Z,101197.00
2018-11-05T01:07:19.934Z,101195.00
2018-11-05T01:09:22.903Z,101199.00
2018-11-05T01:11:25.920Z,101198.00
2018-11-05T01:13:28.971Z,101202.00
2018-11-05T01:15:34.005Z,101204.00
2018-11-05T01:17:37.195Z,101206.00
2018-11-05T01:19:40.186Z,101215.00
2018-11-05T01:21:43.182Z,101212.00
2018-11-05T01:23:46.132Z,101209.00
2018-11-05T01:25:49.166Z,101205.00
2018-11-05T01:27:52.188Z,101203.00
2018-11-05T01:29:55.232Z,101202.00
2018-11-05T01:31:58.171Z,101201.00
2018-11-05T01:34:01.522Z,101203.00
2018-11-05T01:36:05.137Z,101200.00
2018-11-05T01:38:08.103Z,101194.00
2018-11-05T01:40:12.861Z,101190.00
2018-11-05T01:42:15.885Z,101190.00
2018-11-05T01:44:18.844Z,101189.00
2018-11-05T01:46:22.145Z,101178.00
2018-11-05T01:48:25.142Z,101176.00
2018-11-05T01:50:28.181Z,101171.00
2018-11-05T01:52:31.467Z,101168.00
2018-11-05T01:54:34.446Z,101164.00
2018-11-05T01:56:37.407Z,101169.00
2018-11-05T01:58:40.451Z,101161.00
2018-11-05T02:00:43.424Z,101160.00
2018-11-05T02:02:46.953Z,101162.00
2018-11-05T02:04:49.969Z,101161.00
2018-11-05T02:06:52.968Z,101158.00
2018-11-05T02:08:55.977Z,101158.00
2018-11-05T02:10:58.957Z,101155.00
2018-11-05T02:13:03.655Z,101147.00
2018-11-05T02:15:07.485Z,101143.00
2018-11-05T02:17:10.450Z,101146.00
2018-11-05T02:19:13.499Z,101148.00
2018-11-05T02:21:16.587Z,101142.00
2018-11-05T02:23:19.623Z,101138.00
2018-11-05T02:25:22.629Z,101141.00
2018-11-05T02:27:26.297Z,101140.00
2018-11-05T02:29:29.601Z,101139.00
2018-11-05T02:31:34.203Z,101143.00
2018-11-05T02:33:37.228Z,101153.00
2018-11-05T02:35:40.375Z,101161.00
2018-11-05T02:37:44.031Z,101158.00
2018-11-05T02:39:47.051Z,101161.00
2018-11-05T02:41:50.091Z,101157.00
2018-11-05T02:43:53.085Z,101154.00
2018-11-05T02:45:56.100Z,101160.00
2018-11-05T02:47:59.058Z,101169.00
2018-11-05T02:50:04.095Z,101164.00
2018-11-05T02:52:07.156Z,101163.00
2018-11-05T02:54:11.039Z,101164.00
2018-11-05T02:56:14.041Z,101161.00
2018-11-05T02:58:17.335Z,101156.00
2018-11-05T03:00:20.366Z,101162.00
2018-11-05T03:02:23.375Z,101165.00
2018-11-05T03:04:26.374Z,101164.00
2018-11-05T03:06:29.390Z,101163.00
2018-11-05T03:08:33.676Z,101169.00
2018-11-05T03:10:36.714Z,101171.00
2018-11-05T03:12:40.446Z,101166.00
2018-11-05T03:14:43.460Z,101170.00
2018-11-05T03:16:46.520Z,101166.00
2018-11-05T03:18:49.536Z,101170.00
2018-11-05T03:20:52.535Z,101155.00
2018-11-05T03:22:55.595Z,101162.00
2018-11-05T03:24:58.613Z,101162.00
2018-11-05T03:27:02.989Z,101168.00
2018-11-05T03:29:06.169Z,101166.00
2018-11-05T03:31:09.205Z,101162.00
2018-11-05T03:33:12.271Z,101157.00
2018-11-05T03:35:15.532Z,101154.00
2018-11-05T03:37:18.649Z,101146.00
2018-11-05T03:39:21.727Z,101157.00
2018-11-05T03:41:24.785Z,101148.00
2018-11-05T03:43:28.245Z,101143.00
2018-11-05T03:45:31.322Z,101141.00
2018-11-05T03:47:35.720Z,101140.00
2018-11-05T03:49:38.886Z,101131.00
2018-11-05T03:51:41.951Z,101139.00
2018-11-05T03:53:45.061Z,101137.00
2018-11-05T03:55:48.186Z,101131.00
2018-11-05T03:57:51.307Z,101129.00
2018-11-05T03:59:54.432Z,101124.00
2018-11-05T04:01:57.590Z,101118.00
2018-11-05T04:04:00.680Z,101116.00
2018-11-05T04:06:05.963Z,101123.00
2018-11-05T04:08:09.093Z,101122.00
2018-11-05T04:10:13.033Z,101125.00
2018-11-05T04:12:16.239Z,101128.00
2018-11-05T04:14:19.369Z,101125.00
2018-11-05T04:16:22.473Z,101120.00
2018-11-05T04:18:25.568Z,101120.00
2018-11-05T04:20:28.655Z,101114.00
2018-11-05T04:22:33.065Z,101111.00
2018-11-05T04:24:36.187Z,101105.00
2018-11-05T04:26:40.392Z,101105.00
2018-11-05T04:28:43.571Z,101102.00
2018-11-05T04:30:46.683Z,101101.00
2018-11-05T04:32:49.775Z,101100.00
2018-11-05T04:34:52.881Z,101103.00
2018-11-05T04:36:55.975Z,101101.00
2018-11-05T04:38:59.083Z,101106.00
2018-11-05T04:41:03.732Z,101101.00
2018-11-05T04:43:07.232Z,101105.00
2018-11-05T04:45:11.659Z,101104.00
2018-11-05T04:47:14.716Z,101107.00
2018-11-05T04:49:17.808Z,101104.00
2018-11-05T04:51:20.981Z,101105.00
2018-11-05T04:53:24.095Z,101108.00
2018-11-05T04:55:27.192Z,101107.00
2018-11-05T04:57:30.362Z,101107.00
2018-11-05T04:59:34.842Z,101103.00
2018-11-05T05:01:38.018Z,101102.00
2018-11-05T05:03:41.274Z,101104.00
2018-11-05T05:05:44.372Z,101102.00
2018-11-05T05:07:47.530Z,101103.00
2018-11-05T05:09:50.654Z,101100.00
2018-11-05T05:11:53.777Z,101095.00
2018-11-05T05:13:56.863Z,101095.00
2018-11-05T05:16:00.022Z,101100.00
2018-11-05T05:18:04.500Z,101105.00
2018-11-05T05:20:10.587Z,101103.00
2018-11-05T05:22:13.747Z,101095.00
2018-11-05T05:24:16.911Z,101098.00
2018-11-05T05:26:20.015Z,101091.00
2018-11-05T05:28:23.077Z,101082.00
2018-11-05T05:30:26.230Z,101085.00
2018-11-05T05:32:29.375Z,101082.00
2018-11-05T05:34:34.188Z,101079.00
2018-11-05T05:36:37.322Z,101080.00
2018-11-05T05:38:40.532Z,101078.00
2018-11-05T05:40:43.687Z,101081.00
2018-11-05T05:42:46.866Z,101080.00
2018-11-05T05:44:49.990Z,101088.00
2018-11-05T05:46:53.115Z,101088.00
2018-11-05T05:48:56.242Z,101090.00
2018-11-05T05:50:59.367Z,101090.00
2018-11-05T05:53:03.989Z,101097.00
2018-11-05T05:55:07.727Z,101096.00
2018-11-05T05:57:10.811Z,101094.00
2018-11-05T05:59:13.892Z,101092.00
2018-11-05T06:01:16.933Z,101091.00
2018-11-05T06:03:20.082Z,101088.00
2018-11-05T06:05:23.200Z,101086.00
2018-11-05T06:07:26.281Z,101086.00
2018-11-05T06:09:29.411Z,101094.00
2018-11-05T06:11:33.963Z,101100.00
2018-11-05T06:13:37.046Z,101104.00
2018-11-05T06:15:40.197Z,101106.00
2018-11-05T06:17:43.352Z,101099.00
2018-11-05T06:19:46.459Z,101109.00
2018-11-05T06:21:49.868Z,101099.00
2018-11-05T06:23:52.957Z,101097.00
2018-11-05T06:25:56.097Z,101107.00
2018-11-05T06:27:59.212Z,101098.00
2018-11-05T06:30:04.358Z,101100.00
2018-11-05T06:32:07.835Z,101100.00
2018-11-05T06:34:11.757Z,101104.00
2018-11-05T06:36:14.823Z,101104.00
2018-11-05T06:38:18.036Z,101111.00
2018-11-05T06:40:21.647Z,101112.00
2018-11-05T06:42:24.927Z,101109.00
2018-11-05T06:44:28.096Z,101110.00
2018-11-05T06:46:31.184Z,101116.00
2018-11-05T06:48:35.647Z,101121.00
2018-11-05T06:50:38.854Z,101117.00
2018-11-05T06:52:42.730Z,101119.00
2018-11-05T06:54:45.819Z,101119.00
2018-11-05T06:56:49.000Z,101110.00
2018-11-05T06:58:52.075Z,101117.00
2018-11-05T07:00:55.162Z,101129.00
2018-11-05T07:02:58.306Z,101126.00
2018-11-05T07:05:01.467Z,101123.00
2018-11-05T07:07:05.045Z,101129.00
2018-11-05T07:09:09.945Z,101124.00
2018-11-05T07:11:13.102Z,101126.00
2018-11-05T07:13:16.202Z,101129.00
2018-11-05T07:15:19.659Z,101130.00
2018-11-05T07:17:22.733Z,101135.00
2018-11-05T07:19:25.890Z,101132.00
2018-11-05T07:21:29.257Z,101132.00
2018-11-05T07:23:32.817Z,101130.00
2018-11-05T07:25:35.964Z,101137.00
2018-11-05T07:27:39.182Z,101132.00
2018-11-05T07:29:42.438Z,101122.00
2018-11-05T07:31:45.565Z,101120.00
2018-11-05T07:33:48.943Z,101120.00
2018-11-05T07:35:51.842Z,101112.00
2018-11-05T07:37:54.958Z,101115.00
2018-11-05T07:39:58.185Z,101121.00
2018-11-05T07:42:01.348Z,101117.00
2018-11-05T07:44:06.418Z,101116.00
2018-11-05T07:46:09.531Z,101118.00
2018-11-05T07:48:12.658Z,101115.00
2018-11-05T07:50:16.710Z,101109.00
2018-11-05T07:52:19.972Z,101116.00
2018-11-05T07:54:23.064Z,101114.00
2018-11-05T07:56:26.501Z,101119.00
2018-11-05T07:58:29.615Z,101118.00
2018-11-05T08:01:07.357Z,101117.00
2018-11-05T08:03:10.469Z,101125.00
2018-11-05T08:05:14.346Z,101126.00
2018-11-05T08:07:17.433Z,101124.00
2018-11-05T08:09:20.539Z,101132.00
2018-11-05T08:11:23.657Z,101128.00
2018-11-05T08:13:26.914Z,101121.00
2018-11-05T08:15:30.381Z,101119.00
2018-11-05T08:17:35.318Z,101110.00
2018-11-05T08:19:38.491Z,101115.00
2018-11-05T08:21:42.088Z,101108.00
2018-11-05T08:23:45.179Z,101107.00
2018-11-05T08:25:48.341Z,101110.00
2018-11-05T08:27:51.484Z,101102.00
2018-11-05T08:29:54.642Z,101102.00
2018-11-05T08:31:57.768Z,101105.00
2018-11-05T08:34:01.101Z,101100.00
2018-11-05T08:36:05.733Z,101101.00
2018-11-05T08:38:09.087Z,101102.00
2018-11-05T08:40:18.968Z,101097.00
2018-11-05T08:42:21.988Z,101105.00
2018-11-05T08:44:25.128Z,101095.00
2018-11-05T08:46:28.270Z,101106.00
2018-11-05T08:48:31.396Z,101101.00
2018-11-05T08:50:35.982Z,101113.00
2018-11-05T08:52:39.415Z,101108.00
2018-11-05T08:54:42.537Z,101111.00
2018-11-05T08:56:45.617Z,101103.00
2018-11-05T08:58:48.702Z,101102.00
2018-11-05T09:01:00.463Z,101106.00
2018-11-05T09:03:05.148Z,101106.00
2018-11-05T09:05:09.694Z,101104.00
2018-11-05T09:07:12.734Z,101100.00
2018-11-05T09:09:15.803Z,101102.00
2018-11-05T09:11:19.369Z,101100.00
2018-11-05T09:13:22.045Z,101101.00
2018-11-05T09:15:25.183Z,101103.00
2018-11-05T09:17:28.537Z,101101.00
2018-11-05T09:19:33.232Z,101103.00
2018-11-05T09:21:36.359Z,101104.00
2018-11-05T09:23:39.492Z,101106.00
2018-11-05T09:25:42.651Z,101095.00
2018-11-05T09:27:45.852Z,101093.00
2018-11-05T09:29:48.975Z,101088.00
2018-11-05T09:31:52.073Z,101082.00
2018-11-05T09:33:55.147Z,101094.00
2018-11-05T09:35:58.247Z,101086.00
2018-11-05T09:38:01.403Z,101083.00
2018-11-05T09:40:08.492Z,101084.00
2018-11-05T09:42:12.048Z,101084.00
2018-11-05T09:44:15.143Z,101082.00
2018-11-05T09:46:18.273Z,101079.00
2018-11-05T09:48:21.467Z,101075.00
2018-11-05T09:50:24.635Z,101068.00
2018-11-05T09:52:27.683Z,101074.00
2018-11-05T09:54:31.142Z,101076.00
2018-11-05T09:56:34.736Z,101084.00
2018-11-05T09:58:37.821Z,101085.00
2018-11-05T10:00:41.076Z,101086.00
2018-11-05T10:02:49.919Z,101086.00
2018-11-05T10:04:53.256Z,101086.00
2018-11-05T10:06:56.166Z,101083.00
2018-11-05T10:08:59.251Z,101078.00
2018-11-05T10:11:03.725Z,101062.00
2018-11-05T10:13:06.811Z,101059.00
2018-11-05T10:15:11.132Z,101052.00
2018-11-05T10:17:14.266Z,101062.00
2018-11-05T10:19:17.336Z,101081.00
2018-11-05T10:21:20.431Z,101084.00
2018-11-05T10:23:23.563Z,101083.00
2018-11-05T10:25:26.633Z,101090.00
2018-11-05T10:27:29.751Z,101078.00
2018-11-05T10:29:34.346Z,101083.00
2018-11-05T10:31:37.528Z,101065.00
2018-11-05T10:33:42.552Z,101053.00
2018-11-05T10:35:51.269Z,101052.00
2018-11-05T10:37:54.399Z,101050.00
2018-11-05T10:39:57.545Z,101046.00
2018-11-05T10:42:00.642Z,101040.00
2018-11-05T10:44:05.602Z,101030.00
2018-11-05T10:46:08.722Z,101028.00
2018-11-05T10:48:11.976Z,101027.00
2018-11-05T10:50:16.141Z,101025.00
2018-11-05T10:52:19.331Z,101023.00
2018-11-05T10:54:22.451Z,101020.00
2018-11-05T10:56:25.589Z,101017.00
2018-11-05T10:58:28.733Z,101019.00
2018-11-05T11:00:37.449Z,101025.00
2018-11-05T11:02:40.628Z,101012.00
2018-11-05T11:04:43.786Z,100998.00
2018-11-05T11:06:46.914Z,100992.00
2018-11-05T11:08:50.570Z,100991.00
2018-11-05T11:10:53.656Z,100994.00
2018-11-05T11:12:57.047Z,101001.00
2018-11-05T11:15:00.348Z,101005.00
2018-11-05T11:17:05.099Z,100997.00
2018-11-05T11:19:08.242Z,100993.00
2018-11-05T11:21:11.475Z,100981.00
2018-11-05T11:23:14.625Z,100982.00
2018-11-05T11:25:17.875Z,100978.00
2018-11-05T11:27:21.370Z,100966.00
2018-11-05T11:29:24.660Z,100966.00
2018-11-05T11:31:27.632Z,100965.00
2018-11-05T11:33:30.784Z,100958.00
2018-11-05T11:35:35.136Z,100956.00
2018-11-05T11:37:38.511Z,100952.00
2018-11-05T11:39:41.728Z,100939.00
2018-11-05T11:41:44.792Z,100924.00
2018-11-05T11:43:47.913Z,100915.00
2018-11-05T11:45:51.086Z,100918.00
2018-11-05T11:47:54.216Z,100922.00
2018-11-05T11:49:57.391Z,100926.00
2018-11-05T11:52:00.537Z,100933.00
2018-11-05T11:54:05.337Z,100934.00
2018-11-05T11:56:08.543Z,100924.00
2018-11-05T11:58:11.694Z,100914.00
2018-11-05T12:00:18.319Z,100919.00
2018-11-05T12:02:21.564Z,100913.00
2018-11-05T12:04:24.722Z,100906.00
2018-11-05T12:06:27.831Z,100908.00
2018-11-05T12:08:31.028Z,100909.00
2018-11-05T12:10:35.580Z,100906.00
2018-11-05T12:12:38.776Z,100903.00
2018-11-05T12:14:42.004Z,100910.00
2018-11-05T12:16:45.039Z,100904.00
2018-11-05T12:18:48.127Z,100909.00
2018-11-05T12:20:51.254Z,100909.00
2018-11-05T12:22:54.387Z,100914.00
2018-11-05T12:24:57.523Z,100908.00
2018-11-05T12:27:00.738Z,100907.00
2018-11-05T12:29:05.179Z,100909.00
2018-11-05T12:31:08.248Z,100902.00
2018-11-05T12:33:11.400Z,100902.00
2018-11-05T12:35:14.560Z,100897.00
2018-11-05T12:37:17.726Z,100895.00
2018-11-05T12:39:20.840Z,100896.00
2018-11-05T12:41:23.919Z,100890.00
2018-11-05T12:43:27.250Z,100885.00
2018-11-05T12:45:30.320Z,100877.00
2018-11-05T12:47:34.869Z,100877.00
2018-11-05T12:49:38.014Z,100874.00
2018-11-05T12:51:41.192Z,100870.00
2018-11-05T12:53:44.328Z,100862.00
2018-11-05T12:55:47.528Z,100863.00
2018-11-05T12:57:50.642Z,100856.00
2018-11-05T12:59:53.762Z,100859.00
2018-11-05T13:01:58.771Z,100861.00
2018-11-05T13:04:03.490Z,100856.00
2018-11-05T13:06:06.896Z,100858.00
2018-11-05T13:08:10.083Z,100864.00
2018-11-05T13:10:13.269Z,100860.00
2018-11-05T13:12:16.419Z,100856.00
2018-11-05T13:14:20.134Z,100856.00
2018-11-05T13:16:23.233Z,100848.00
2018-11-05T13:18:26.380Z,100843.00
2018-11-05T13:20:29.502Z,100844.00
2018-11-05T13:22:32.983Z,100836.00
2018-11-05T13:24:36.087Z,100834.00
2018-11-05T13:26:39.304Z,100841.00
2018-11-05T13:28:42.544Z,100839.00
2018-11-05T13:30:45.630Z,100836.00
2018-11-05T13:32:48.760Z,100842.00
2018-11-05T13:34:52.140Z,100839.00
2018-11-05T13:36:55.403Z,100841.00
2018-11-05T13:38:58.318Z,100839.00
2018-11-05T13:41:03.617Z,100830.00
2018-11-05T13:43:06.670Z,100831.00
2018-11-05T13:45:11.191Z,100830.00
2018-11-05T13:47:14.903Z,100827.00
2018-11-05T13:49:17.628Z,100831.00
2018-11-05T13:51:20.578Z,100831.00
2018-11-05T13:53:23.750Z,100840.00
2018-11-05T13:55:26.871Z,100835.00
2018-11-05T13:57:30.030Z,100835.00
2018-11-05T13:59:35.037Z,100831.00
2018-11-05T14:01:38.143Z,100823.00
2018-11-05T14:03:41.263Z,100823.00
2018-11-05T14:05:44.497Z,100826.00
2018-11-05T14:07:47.584Z,100823.00
2018-11-05T14:09:50.733Z,100820.00
2018-11-05T14:11:53.867Z,100820.00
2018-11-05T14:13:57.018Z,100818.00
2018-11-05T14:16:00.144Z,100820.00
2018-11-05T14:18:04.605Z,100823.00
2018-11-05T14:20:09.142Z,100815.00
2018-11-05T14:22:12.294Z,100811.00
2018-11-05T14:24:15.373Z,100813.00
2018-11-05T14:26:18.655Z,100814.00
2018-11-05T14:28:22.374Z,100809.00
2018-11-05T14:30:25.288Z,100805.00
2018-11-05T14:32:28.415Z,100808.00
2018-11-05T14:34:31.545Z,100807.00
2018-11-05T14:36:35.130Z,100811.00
2018-11-05T14:38:38.289Z,100812.00
2018-11-05T14:40:41.348Z,100810.00
2018-11-05T14:42:44.549Z,100815.00
2018-11-05T14:44:47.640Z,100812.00
2018-11-05T14:46:50.741Z,100807.00
2018-11-05T14:48:53.911Z,100809.00
2018-11-05T14:50:57.074Z,100806.00
2018-11-05T14:53:00.084Z,100805.00
2018-11-05T14:55:05.233Z,100806.00
2018-11-05T14:57:08.543Z,100803.00
2018-11-05T14:59:11.628Z,100804.00
2018-11-05T15:01:14.723Z,100798.00
2018-11-05T15:03:17.822Z,100800.00
2018-11-05T15:05:20.997Z,100800.00
2018-11-05T15:07:24.106Z,100800.00
2018-11-05T15:09:27.240Z,100796.00
2018-11-05T15:11:30.384Z,100798.00
2018-11-05T15:13:35.142Z,100801.00
2018-11-05T15:15:38.248Z,100800.00
2018-11-05T15:17:42.081Z,100795.00
2018-11-05T15:19:45.952Z,100797.00
2018-11-05T15:21:48.694Z,100795.00
2018-11-05T15:23:51.749Z,100795.00
2018-11-05T15:25:54.963Z,100797.00
2018-11-05T15:27:58.096Z,100796.00
2018-11-05T15:30:01.197Z,100787.00
2018-11-05T15:32:06.817Z,100795.00
2018-11-05T15:34:09.936Z,100792.00
2018-11-05T15:36:13.620Z,100791.00
2018-11-05T15:38:17.023Z,100792.00
2018-11-05T15:40:21.056Z,100782.00
2018-11-05T15:42:24.160Z,100790.00
2018-11-05T15:44:27.253Z,100788.00
2018-11-05T15:46:30.355Z,100785.00
2018-11-05T15:48:35.107Z,100785.00
2018-11-05T15:50:40.249Z,100787.00
2018-11-05T15:52:43.699Z,100785.00
2018-11-05T15:54:46.450Z,100780.00
2018-11-05T15:56:50.432Z,100783.00
2018-11-05T15:58:53.547Z,100785.00
2018-11-05T16:00:56.749Z,100783.00
2018-11-05T16:03:00.807Z,100781.00
2018-11-05T16:05:05.558Z,100779.00
2018-11-05T16:07:08.974Z,100780.00
2018-11-05T16:09:12.145Z,100780.00
2018-11-05T16:11:15.264Z,100777.00
2018-11-05T16:13:18.380Z,100786.00
2018-11-05T16:15:21.548Z,100788.00
2018-11-05T16:17:24.667Z,100785.00
2018-11-05T16:19:27.763Z,100778.00
2018-11-05T16:21:31.037Z,100780.00
2018-11-05T16:23:35.764Z,100783.00
2018-11-05T16:25:38.992Z,100779.00
2018-11-05T16:27:42.347Z,100780.00
2018-11-05T16:29:45.454Z,100778.00
2018-11-05T16:31:48.527Z,100781.00
2018-11-05T16:33:51.740Z,100779.00
2018-11-05T16:35:55.256Z,100780.00
2018-11-05T16:37:58.329Z,100781.00
2018-11-05T16:40:01.474Z,100789.00
2018-11-05T16:42:04.904Z,100788.00
2018-11-05T16:44:08.497Z,100781.00
2018-11-05T16:46:11.627Z,100785.00
2018-11-05T16:48:14.755Z,100783.00
2018-11-05T16:50:24.179Z,100785.00
2018-11-05T16:52:27.310Z,100787.00
2018-11-05T16:54:30.396Z,100783.00
2018-11-05T16:56:35.935Z,100784.00
2018-11-05T16:58:39.067Z,100783.00
2018-11-05T17:00:42.304Z,100782.00
2018-11-05T17:02:46.279Z,100780.00
2018-11-05T17:04:49.207Z,100782.00
2018-11-05T17:06:52.421Z,100770.00
2018-11-05T17:08:55.548Z,100779.00
2018-11-05T17:10:58.643Z,100784.00
2018-11-05T17:13:03.381Z,100784.00
2018-11-05T17:15:08.784Z,100785.00
2018-11-05T17:17:12.179Z,100788.00
2018-11-05T17:19:15.365Z,100788.00
2018-11-05T17:21:18.570Z,100779.00
2018-11-05T17:23:21.721Z,100779.00
2018-11-05T17:25:24.877Z,100781.00
2018-11-05T17:27:27.964Z,100779.00
2018-11-05T17:29:31.076Z,100781.00
2018-11-05T17:31:35.849Z,100782.00
2018-11-05T17:33:39.094Z,100780.00
2018-11-05T17:35:42.241Z,100773.00
2018-11-05T17:37:46.099Z,100770.00
2018-11-05T17:39:50.396Z,100772.00
2018-11-05T17:41:53.980Z,100775.00
2018-11-05T17:43:57.102Z,100774.00
2018-11-05T17:46:00.313Z,100777.00
2018-11-05T17:48:05.164Z,100776.00
2018-11-05T17:50:11.633Z,100773.00
2018-11-05T17:52:14.684Z,100772.00
2018-11-05T17:54:17.777Z,100774.00
2018-11-05T17:56:21.187Z,100769.00
2018-11-05T17:58:25.310Z,100773.00
2018-11-05T18:00:28.518Z,100774.00
2018-11-05T18:02:33.271Z,100774.00
2018-11-05T18:04:36.537Z,100774.00
2018-11-05T18:06:39.761Z,100776.00
2018-11-05T18:08:42.932Z,100775.00
2018-11-05T18:10:46.066Z,100770.00
2018-11-05T18:12:49.260Z,100769.00
2018-11-05T18:14:52.821Z,100772.00
2018-11-05T18:16:56.069Z,100776.00
2018-11-05T18:18:59.913Z,100772.00
2018-11-05T18:21:04.690Z,100772.00
2018-11-05T18:23:08.232Z,100766.00
2018-11-05T18:25:12.850Z,100766.00
2018-11-05T18:27:15.937Z,100757.00
2018-11-05T18:29:19.047Z,100757.00
2018-11-05T18:31:22.363Z,100761.00
2018-11-05T18:33:25.440Z,100762.00
2018-11-05T18:35:28.520Z,100762.00
2018-11-05T18:37:33.768Z,100769.00
2018-11-05T18:39:36.880Z,100763.00
2018-11-05T18:41:40.235Z,100762.00
2018-11-05T18:43:43.432Z,100766.00
2018-11-05T18:45:46.542Z,100758.00
2018-11-05T18:47:49.792Z,100754.00
2018-11-05T18:49:53.206Z,100749.00
2018-11-05T18:51:56.447Z,100748.00
2018-11-05T18:53:59.631Z,100742.00
2018-11-05T18:56:04.299Z,100743.00
2018-11-05T18:58:07.421Z,100735.00
2018-11-05T19:00:21.715Z,100733.00
2018-11-05T19:02:28.728Z,100732.00
2018-11-05T19:04:33.575Z,100727.00
2018-11-05T19:06:36.695Z,100730.00
2018-11-05T19:08:39.951Z,100727.00
2018-11-05T19:10:43.071Z,100729.00
2018-11-05T19:12:46.728Z,100731.00
2018-11-05T19:14:49.833Z,100735.00
2018-11-05T19:16:52.969Z,100729.00
2018-11-05T19:18:56.412Z,100731.00
2018-11-05T19:20:59.491Z,100727.00
2018-11-05T19:23:04.063Z,100737.00
2018-11-05T19:25:08.819Z,100742.00
2018-11-05T19:27:11.836Z,100735.00
2018-11-05T19:29:14.912Z,100734.00
2018-11-05T19:31:18.046Z,100740.00
2018-11-05T19:33:21.244Z,100738.00
2018-11-05T19:35:24.363Z,100740.00
2018-11-05T19:37:28.818Z,100744.00
2018-11-05T19:39:33.280Z,100746.00
2018-11-05T19:41:36.399Z,100748.00
2018-11-05T19:43:39.900Z,100750.00
2018-11-05T19:45:42.978Z,100749.00
2018-11-05T19:47:46.139Z,100743.00
2018-11-05T19:49:49.425Z,100746.00
2018-11-05T19:51:52.898Z,100750.00
2018-11-05T19:53:56.091Z,100745.00
2018-11-05T19:55:59.484Z,100738.00
2018-11-05T19:58:03.929Z,100740.00
2018-11-05T20:00:15.163Z,100742.00
2018-11-05T20:02:18.452Z,100744.00
2018-11-05T20:04:22.019Z,100741.00
2018-11-05T20:06:25.102Z,100738.00
2018-11-05T20:08:28.548Z,100745.00
2018-11-05T20:10:33.536Z,100744.00
2018-11-05T20:12:36.663Z,100744.00
2018-11-05T20:14:39.793Z,100741.00
2018-11-05T20:16:43.873Z,100741.00
2018-11-05T20:18:47.133Z,100741.00
2018-11-05T20:20:50.315Z,100737.00
2018-11-05T20:22:53.983Z,100741.00
2018-11-05T20:24:57.172Z,100742.00
2018-11-05T20:27:00.255Z,100754.00
2018-11-05T20:29:04.733Z,100751.00
2018-11-05T20:31:07.933Z,100752.00
2018-11-05T20:33:11.142Z,100748.00
2018-11-05T20:35:14.380Z,100748.00
2018-11-05T20:37:17.607Z,100747.00
2018-11-05T20:39:20.807Z,100743.00
2018-11-05T20:41:24.102Z,100744.00
2018-11-05T20:43:27.206Z,100742.00
2018-11-05T20:45:30.307Z,100741.00
2018-11-05T20:47:35.380Z,100742.00
2018-11-05T20:49:38.615Z,100738.00
2018-11-05T20:51:41.686Z,100740.00
2018-11-05T20:53:44.872Z,100741.00
2018-11-05T20:55:48.922Z,100740.00
2018-11-05T20:57:52.130Z,100735.00
2018-11-05T20:59:55.753Z,100734.00
2018-11-05T21:01:58.888Z,100737.00
2018-11-05T21:04:03.632Z,100735.00
2018-11-05T21:06:06.775Z,100741.00
2018-11-05T21:08:09.890Z,100734.00
2018-11-05T21:10:13.898Z,100738.00
2018-11-05T21:12:17.069Z,100737.00
2018-11-05T21:14:20.183Z,100728.00
2018-11-05T21:16:23.570Z,100736.00
2018-11-05T21:18:26.874Z,100733.00
2018-11-05T21:20:30.011Z,100727.00
2018-11-05T21:22:34.244Z,100729.00
2018-11-05T21:24:37.371Z,100724.00
2018-11-05T21:26:40.483Z,100729.00
2018-11-05T21:28:43.779Z,100737.00
2018-11-05T21:30:46.856Z,100731.00
2018-11-05T21:32:50.097Z,100724.00
2018-11-05T21:34:53.219Z,100727.00
2018-11-05T21:36:56.308Z,100717.00
2018-11-05T21:38:59.530Z,100716.00
2018-11-05T21:41:04.335Z,100713.00
2018-11-05T21:43:07.557Z,100707.00
2018-11-05T21:45:11.952Z,100714.00
2018-11-05T21:47:15.126Z,100703.00
2018-11-05T21:49:18.261Z,100704.00
2018-11-05T21:51:21.423Z,100700.00
2018-11-05T21:53:24.521Z,100698.00
2018-11-05T21:55:27.757Z,100704.00
2018-11-05T21:57:30.922Z,100705.00
2018-11-05T21:59:35.332Z,100703.00
2018-11-05T22:01:38.501Z,100695.00
2018-11-05T22:03:42.718Z,100691.00
2018-11-05T22:05:45.831Z,100689.00
2018-11-05T22:07:49.123Z,100696.00
2018-11-05T22:09:52.348Z,100693.00
2018-11-05T22:11:55.631Z,100697.00
2018-11-05T22:13:58.789Z,100696.00
2018-11-05T22:16:08.118Z,100697.00
2018-11-05T22:18:11.797Z,100690.00
2018-11-05T22:20:14.896Z,100692.00
2018-11-05T22:22:18.347Z,100689.00
2018-11-05T22:24:22.585Z,100692.00
2018-11-05T22:26:25.689Z,100698.00
2018-11-05T22:28:28.847Z,100701.00
2018-11-05T22:30:33.188Z,100699.00
2018-11-05T22:32:36.558Z,100703.00
2018-11-05T22:34:39.663Z,100702.00
2018-11-05T22:36:42.768Z,100699.00
2018-11-05T22:38:45.908Z,100697.00
2018-11-05T22:40:48.995Z,100695.00
2018-11-05T22:42:57.755Z,100701.00
2018-11-05T22:45:00.859Z,100703.00
2018-11-05T22:47:05.761Z,100706.00
2018-11-05T22:49:08.866Z,100704.00
2018-11-05T22:51:12.012Z,100698.00
2018-11-05T22:53:15.123Z,100696.00
2018-11-05T22:55:18.204Z,100697.00
2018-11-05T22:57:21.595Z,100700.00
2018-11-05T22:59:24.734Z,100694.00
2018-11-05T23:01:33.457Z,100700.00
2018-11-05T23:03:36.580Z,100690.00
2018-11-05T23:05:39.736Z,100688.00
2018-11-05T23:07:42.806Z,100693.00
2018-11-05T23:09:46.180Z,100688.00
2018-11-05T23:11:49.276Z,100691.00
2018-11-05T23:13:52.426Z,100696.00
2018-11-05T23:15:55.967Z,100692.00
2018-11-05T23:17:59.231Z,100692.00
2018-11-05T23:20:04.256Z,100699.00
2018-11-05T23:22:07.417Z,100704.00
2018-11-05T23:24:10.966Z,100698.00
2018-11-05T23:26:14.075Z,100699.00
2018-11-05T23:28:17.288Z,100697.00
2018-11-05T23:30:20.416Z,100699.00